Time;durP1;ratioP1;P1;durP2;ratioP2;P2;SDS_P1;SDS_P2;PMS_P1;PMS_P2;Temp;Humidity;BMP_temperature;BMP_pressure;BME280_temperature;BME280_humidity;BME280_pressure;Samples;Min_cycle;Max_cycle;Signal;HPM_P1;HPM_P2
2022/04/05 00:00:43;;;;;;;6.97;5.43;;;6.80;99.90;;;;;;5095001;28;20020;-67
2022/04/05 00:03:09;;;;;;;6.85;5.50;;;6.80;99.90;;;;;;5094320;28;20027;-63
2022/04/05 00:05:34;;;;;;;8.32;6.00;;;6.80;99.90;;;;;;5094208;28;20476;-72
2022/04/05 00:08:00;;;;;;;6.72;5.55;;;6.80;99.90;;;;;;5094917;28;20169;-63
2022/04/05 00:10:26;;;;;;;7.15;5.63;;;6.90;99.90;;;;;;5095074;28;20020;-64
2022/04/05 00:12:52;;;;;;;7.45;6.03;;;6.90;99.90;;;;;;5093490;28;20131;-63
2022/04/05 00:15:17;;;;;;;7.15;5.38;;;6.80;99.90;;;;;;5093916;28;20060;-62
2022/04/05 00:17:43;;;;;;;6.22;5.18;;;6.90;99.90;;;;;;5093538;28;20101;-62
2022/04/05 00:20:09;;;;;;;9.32;5.40;;;6.80;99.90;;;;;;5094383;28;20077;-61
2022/04/05 00:22:35;;;;;;;7.88;5.50;;;6.90;99.90;;;;;;5092481;28;20039;-71
2022/04/05 00:25:01;;;;;;;7.32;5.88;;;6.90;99.90;;;;;;5094008;28;20021;-66
2022/04/05 00:27:26;;;;;;;6.45;5.38;;;6.90;99.90;;;;;;5093927;28;20059;-64
2022/04/05 00:29:52;;;;;;;9.90;5.55;;;6.90;99.90;;;;;;5093529;28;20496;-64
2022/04/05 00:32:18;;;;;;;6.72;5.47;;;6.80;99.90;;;;;;5093478;28;20365;-65
2022/04/05 00:34:43;;;;;;;7.07;6.22;;;6.80;99.90;;;;;;5092736;28;20089;-67
2022/04/05 00:37:09;;;;;;;6.13;5.35;;;6.80;99.90;;;;;;5093890;28;20096;-62
2022/04/05 00:39:35;;;;;;;8.38;5.80;;;6.80;99.90;;;;;;5092185;28;20070;-65
2022/04/05 00:42:01;;;;;;;5.97;5.38;;;6.90;99.90;;;;;;5093350;28;20053;-65
2022/04/05 00:44:27;;;;;;;9.45;5.80;;;6.80;99.90;;;;;;5076202;28;20120;-64
2022/04/05 00:46:53;;;;;;;9.77;5.53;;;6.70;99.90;;;;;;5072592;28;20035;-63
2022/04/05 00:49:46;;;;;;;6.15;5.50;;;6.80;99.90;;;;;;5054900;28;20078;-62
2022/04/05 00:52:14;;;;;;;7.10;5.40;;;6.70;99.90;;;;;;5068734;28;20044;-62
2022/04/05 00:54:41;;;;;;;6.45;5.20;;;6.70;99.90;;;;;;5072721;28;20474;-62
2022/04/05 00:57:12;;;;;;;7.18;5.50;;;6.70;99.90;;;;;;5073361;28;20039;-62
2022/04/05 00:59:43;;;;;;;6.50;5.07;;;6.60;99.90;;;;;;5072427;28;20031;-63
2022/04/05 01:02:22;;;;;;;6.75;4.95;;;6.70;99.90;;;;;;5073519;28;20107;-62
2022/04/05 01:04:48;;;;;;;6.13;4.90;;;6.80;99.90;;;;;;5073195;28;20074;-65
2022/04/05 01:07:22;;;;;;;6.78;5.43;;;6.70;99.90;;;;;;5055177;28;20032;-66
2022/04/05 01:09:53;;;;;;;6.72;5.32;;;6.70;99.90;;;;;;5072712;28;20056;-66
2022/04/05 01:12:20;;;;;;;5.97;5.38;;;6.70;99.90;;;;;;5073366;28;20372;-62
2022/04/05 01:14:46;;;;;;;6.15;5.50;;;6.70;99.90;;;;;;5054695;28;20397;-65
2022/04/05 01:17:13;;;;;;;5.95;5.35;;;6.70;99.90;;;;;;5055076;28;20035;-62
2022/04/05 01:19:38;;;;;;;7.15;5.28;;;6.70;99.90;;;;;;5054310;28;20035;-66
2022/04/05 01:22:04;;;;;;;6.15;5.50;;;6.70;99.90;;;;;;5073126;28;20374;-62
2022/04/05 01:24:32;;;;;;;9.00;5.78;;;6.70;99.90;;;;;;5054823;28;20033;-63
2022/04/05 01:26:59;;;;;;;9.02;5.78;;;6.70;99.90;;;;;;5054602;28;20481;-62
2022/04/05 01:29:27;;;;;;;7.63;5.45;;;6.70;99.90;;;;;;5076452;28;20024;-61
2022/04/05 01:32:07;;;;;;;7.60;4.90;;;6.70;99.90;;;;;;5075647;28;20454;-62
2022/04/05 01:34:37;;;;;;;6.90;5.20;;;6.70;99.90;;;;;;5076292;28;20024;-63
2022/04/05 01:37:07;;;;;;;7.45;5.90;;;6.80;99.90;;;;;;5058067;28;20032;-62
2022/04/05 01:39:34;;;;;;;7.88;5.10;;;6.80;99.90;;;;;;5076246;28;20029;-64
2022/04/05 01:42:05;;;;;;;6.03;4.60;;;6.80;99.90;;;;;;5075629;28;20167;-63
2022/04/05 01:44:32;;;;;;;6.60;5.63;;;6.80;99.90;;;;;;5075900;28;20053;-65
2022/04/05 01:47:07;;;;;;;6.07;5.30;;;6.80;99.90;;;;;;5040626;28;20385;-69
2022/04/05 01:49:33;;;;;;;8.00;5.07;;;6.80;99.90;;;;;;5075891;28;20060;-63
2022/04/05 01:51:59;;;;;;;7.10;5.00;;;6.80;99.90;;;;;;5075068;28;20025;-65
2022/04/05 01:54:25;;;;;;;8.23;5.53;;;6.70;99.90;;;;;;5059126;28;20101;-62
2022/04/05 01:56:51;;;;;;;6.45;5.60;;;6.80;99.90;;;;;;5075131;28;20504;-67
2022/04/05 01:59:19;;;;;;;5.72;5.05;;;6.70;99.90;;;;;;5057928;28;20024;-62
2022/04/05 02:01:45;;;;;;;6.32;4.65;;;6.70;99.90;;;;;;5057185;28;20024;-64
2022/04/05 02:04:12;;;;;;;7.32;6.10;;;6.80;99.90;;;;;;5075403;28;20039;-62
2022/04/05 02:06:39;;;;;;;7.50;5.55;;;6.80;99.90;;;;;;5075002;28;20449;-63
2022/04/05 02:09:05;;;;;;;8.57;5.75;;;6.70;99.90;;;;;;5074467;28;20020;-64
2022/04/05 02:11:31;;;;;;;6.72;4.97;;;6.70;99.90;;;;;;5075899;28;20028;-63
2022/04/05 02:13:57;;;;;;;8.20;6.07;;;6.70;99.90;;;;;;5041490;28;20070;-64
2022/04/05 02:16:22;;;;;;;8.10;6.05;;;6.70;99.90;;;;;;5075612;28;20029;-62
2022/04/05 02:18:48;;;;;;;6.65;5.72;;;6.70;99.90;;;;;;5057937;28;20063;-62
2022/04/05 02:21:13;;;;;;;9.40;6.32;;;6.70;99.90;;;;;;5076903;28;20036;-64
2022/04/05 02:23:39;;;;;;;10.10;6.20;;;6.70;99.90;;;;;;5058161;28;20031;-62
2022/04/05 02:26:05;;;;;;;6.65;5.90;;;6.70;99.90;;;;;;5056869;28;20036;-62
2022/04/05 02:28:30;;;;;;;6.28;5.68;;;6.70;99.90;;;;;;5057200;28;20028;-67
2022/04/05 02:30:56;;;;;;;8.23;6.28;;;6.70;99.90;;;;;;5074465;28;20106;-63
2022/04/05 02:33:22;;;;;;;7.72;6.35;;;6.70;99.90;;;;;;5076576;28;20035;-64
2022/04/05 02:35:48;;;;;;;6.45;5.68;;;6.70;99.90;;;;;;5058395;28;20064;-70
2022/04/05 02:38:14;;;;;;;5.90;5.18;;;6.70;99.90;;;;;;5058279;28;20021;-63
2022/04/05 02:40:40;;;;;;;7.70;5.70;;;6.70;99.90;;;;;;5075227;28;20021;-62
2022/04/05 02:43:06;;;;;;;11.02;6.80;;;6.70;99.90;;;;;;5066424;28;20504;-65
2022/04/05 02:45:33;;;;;;;6.43;5.82;;;6.70;99.90;;;;;;5096622;28;20060;-67
2022/04/05 02:47:59;;;;;;;6.40;5.80;;;6.70;99.90;;;;;;5095837;28;20030;-62
2022/04/05 02:50:26;;;;;;;10.05;6.13;;;6.70;99.90;;;;;;5096144;28;20071;-64
2022/04/05 02:52:52;;;;;;;6.45;5.50;;;6.70;99.90;;;;;;5095583;28;20039;-64
2022/04/05 02:55:18;;;;;;;6.05;5.45;;;6.70;99.90;;;;;;5095615;28;20028;-63
2022/04/05 02:57:45;;;;;;;5.88;5.30;;;6.80;99.90;;;;;;5095193;28;20028;-66
2022/04/05 03:00:15;;;;;;;5.80;5.18;;;6.80;99.90;;;;;;5095124;28;20020;-62
2022/04/05 03:02:42;;;;;;;6.22;5.05;;;6.70;99.90;;;;;;5094290;28;20030;-62
2022/04/05 03:05:08;;;;;;;5.68;5.07;;;6.70;99.90;;;;;;5092667;28;20059;-64
2022/04/05 03:07:34;;;;;;;6.53;5.50;;;6.80;99.90;;;;;;5094962;28;20052;-64
2022/04/05 03:10:01;;;;;;;6.13;5.28;;;6.80;99.90;;;;;;5093600;28;20028;-63
2022/04/05 03:12:26;;;;;;;6.15;5.55;;;6.70;99.90;;;;;;5093895;28;20358;-64
2022/04/05 03:14:52;;;;;;;5.72;4.78;;;6.70;99.90;;;;;;5093924;28;20038;-63
2022/04/05 03:17:18;;;;;;;6.03;5.15;;;6.70;99.90;;;;;;5094405;28;20028;-64
2022/04/05 03:19:44;;;;;;;6.28;4.63;;;6.70;99.90;;;;;;5094283;28;20028;-62
2022/04/05 03:22:10;;;;;;;6.00;5.18;;;6.70;99.90;;;;;;5093403;28;20027;-63
2022/04/05 03:24:35;;;;;;;5.47;4.70;;;6.70;99.90;;;;;;5094219;28;20032;-69
2022/04/05 03:27:01;;;;;;;6.25;4.57;;;6.90;99.90;;;;;;5094092;28;20028;-65
2022/04/05 03:29:28;;;;;;;5.93;4.85;;;6.80;99.90;;;;;;5094683;28;20043;-64
2022/04/05 03:31:54;;;;;;;10.00;5.22;;;6.80;99.90;;;;;;5093481;28;20112;-64
2022/04/05 03:34:20;;;;;;;6.65;4.68;;;6.80;99.90;;;;;;5093053;28;20053;-63
2022/04/05 03:36:45;;;;;;;5.38;4.70;;;6.80;99.90;;;;;;5094347;28;20036;-62
2022/04/05 03:39:13;;;;;;;5.47;4.97;;;6.80;99.90;;;;;;5093735;28;20488;-64
2022/04/05 03:41:40;;;;;;;6.22;4.88;;;6.80;99.90;;;;;;5094185;28;20020;-67
2022/04/05 03:44:06;;;;;;;5.15;4.65;;;6.80;99.90;;;;;;5092334;28;20134;-62
2022/04/05 03:46:32;;;;;;;5.53;4.15;;;6.70;99.90;;;;;;5094236;28;20034;-64
2022/04/05 03:48:58;;;;;;;5.13;4.63;;;6.80;99.90;;;;;;5093402;28;20024;-63
2022/04/05 03:51:24;;;;;;;6.90;4.47;;;6.80;99.90;;;;;;5093306;28;20040;-64
2022/04/05 03:53:49;;;;;;;5.45;4.18;;;6.80;99.90;;;;;;5093689;28;20024;-67
2022/04/05 03:56:15;;;;;;;4.47;4.07;;;6.80;99.90;;;;;;5093977;28;20145;-67
2022/04/05 03:58:41;;;;;;;5.30;4.40;;;6.80;99.90;;;;;;5093286;28;20403;-62
2022/04/05 04:01:07;;;;;;;5.57;4.95;;;6.80;99.90;;;;;;5091972;28;20020;-62
2022/04/05 04:03:33;;;;;;;4.88;4.30;;;6.80;99.90;;;;;;5094107;28;20054;-62
2022/04/05 04:05:59;;;;;;;4.78;4.28;;;6.80;99.90;;;;;;5093138;28;20102;-62
2022/04/05 04:08:26;;;;;;;4.43;4.03;;;6.80;99.90;;;;;;5093773;28;20036;-63
2022/04/05 04:10:52;;;;;;;4.78;4.07;;;6.80;99.90;;;;;;5092919;28;20059;-64
2022/04/05 04:13:18;;;;;;;4.10;3.63;;;6.90;99.90;;;;;;5093405;28;20410;-65
2022/04/05 04:15:44;;;;;;;6.25;3.90;;;6.90;99.90;;;;;;5093982;28;20024;-63
2022/04/05 04:18:10;;;;;;;4.10;3.53;;;6.90;99.90;;;;;;5092964;28;20371;-65
2022/04/05 04:20:38;;;;;;;4.95;4.15;;;6.90;99.90;;;;;;5093835;28;20028;-63
2022/04/05 04:23:05;;;;;;;4.10;3.67;;;6.90;99.90;;;;;;5091569;28;20058;-64
2022/04/05 04:25:31;;;;;;;4.75;4.30;;;6.90;99.90;;;;;;5092125;28;20028;-64
2022/04/05 04:27:57;;;;;;;5.45;4.72;;;6.90;99.90;;;;;;5092599;28;20397;-64
2022/04/05 04:30:23;;;;;;;4.68;3.90;;;6.90;99.90;;;;;;5093169;28;20389;-63
2022/04/05 04:32:48;;;;;;;4.20;3.80;;;6.80;99.90;;;;;;5092919;28;20028;-64
2022/04/05 04:35:14;;;;;;;4.53;4.10;;;6.90;99.90;;;;;;5091609;28;20183;-64
2022/04/05 04:37:40;;;;;;;5.13;3.72;;;6.90;99.90;;;;;;5092547;28;20038;-63
2022/04/05 04:40:06;;;;;;;5.97;4.28;;;6.90;99.90;;;;;;5092107;28;20024;-66
2022/04/05 04:42:33;;;;;;;3.28;2.97;;;6.90;99.90;;;;;;5091931;28;20544;-63
2022/04/05 04:44:59;;;;;;;6.60;4.50;;;6.90;99.90;;;;;;5072411;28;20021;-62
2022/04/05 04:47:24;;;;;;;4.72;3.72;;;6.90;99.90;;;;;;5072468;28;20032;-63
2022/04/05 04:49:50;;;;;;;3.92;3.53;;;6.90;99.90;;;;;;5061648;28;20079;-64
2022/04/05 04:52:16;;;;;;;5.13;3.58;;;6.90;99.90;;;;;;5071241;28;20393;-63
2022/04/05 04:54:41;;;;;;;3.95;3.38;;;7.00;99.90;;;;;;5070630;28;20053;-63
2022/04/05 04:57:07;;;;;;;4.22;3.80;;;7.00;99.90;;;;;;5053498;28;20028;-63
2022/04/05 04:59:33;;;;;;;4.18;3.78;;;7.00;99.90;;;;;;5073524;28;20115;-62
2022/04/05 05:01:58;;;;;;;5.75;3.80;;;7.00;99.90;;;;;;5067442;28;20028;-63
2022/04/05 05:04:24;;;;;;;4.85;4.03;;;7.00;99.90;;;;;;5074048;28;20028;-63
2022/04/05 05:06:51;;;;;;;4.30;3.85;;;7.00;99.90;;;;;;5073218;28;20071;-63
2022/04/05 05:09:17;;;;;;;4.43;3.72;;;8.00;99.90;;;;;;5076493;28;20029;-63
2022/04/05 05:11:44;;;;;;;4.18;3.78;;;7.50;99.90;;;;;;5076215;28;20035;-63
2022/04/05 05:14:10;;;;;;;4.63;3.80;;;7.30;99.90;;;;;;5075788;28;20377;-64
2022/04/05 05:16:35;;;;;;;4.00;3.60;;;7.20;99.90;;;;;;5076710;28;20029;-64
2022/04/05 05:19:01;;;;;;;5.13;3.40;;;7.20;99.90;;;;;;5076136;28;20064;-62
2022/04/05 05:21:30;;;;;;;7.28;4.80;;;7.20;99.90;;;;;;5070133;28;20029;-62
2022/04/05 05:23:55;;;;;;;4.80;4.30;;;7.10;99.90;;;;;;5053762;28;20367;-64
2022/04/05 05:26:21;;;;;;;5.35;4.68;;;7.10;99.90;;;;;;5052270;28;20043;-64
2022/04/05 05:28:47;;;;;;;4.57;4.18;;;7.10;99.90;;;;;;5052200;28;20024;-63
2022/04/05 05:31:12;;;;;;;5.55;4.25;;;7.10;99.90;;;;;;5066232;28;20286;-63
2022/04/05 05:33:38;;;;;;;4.72;4.32;;;7.10;99.90;;;;;;5043712;28;20075;-62
2022/04/05 05:36:04;;;;;;;5.47;4.45;;;7.00;99.90;;;;;;5038910;28;20059;-64
2022/04/05 05:38:30;;;;;;;5.90;4.75;;;7.10;99.90;;;;;;5057046;28;20378;-65
2022/04/05 05:40:55;;;;;;;4.57;4.18;;;7.10;99.90;;;;;;5058918;28;20029;-65
2022/04/05 05:43:23;;;;;;;4.55;4.15;;;7.10;99.90;;;;;;5070897;28;20123;-64
2022/04/05 05:45:49;;;;;;;5.32;4.05;;;7.10;99.90;;;;;;5096207;28;20027;-65
2022/04/05 05:48:15;;;;;;;5.82;4.50;;;7.10;99.90;;;;;;5095676;28;20035;-64
2022/04/05 05:50:41;;;;;;;4.72;4.22;;;7.20;99.90;;;;;;5092130;28;20128;-64
2022/04/05 05:53:07;;;;;;;4.80;4.35;;;7.10;99.90;;;;;;5076561;28;20082;-64
2022/04/05 05:55:35;;;;;;;7.75;4.78;;;7.10;99.90;;;;;;5077106;28;20025;-64
2022/04/05 05:58:03;;;;;;;5.10;4.38;;;7.10;99.90;;;;;;5074002;28;20024;-65
2022/04/05 06:00:29;;;;;;;7.47;4.60;;;7.10;99.90;;;;;;5084325;28;20024;-70
2022/04/05 06:02:58;;;;;;;5.18;4.68;;;7.10;99.90;;;;;;5088430;28;20020;-71
2022/04/05 06:05:25;;;;;;;5.68;4.47;;;7.10;99.90;;;;;;5096321;28;20027;-64
2022/04/05 06:07:51;;;;;;;5.22;4.72;;;7.10;99.90;;;;;;5092746;28;20082;-68
2022/04/05 06:10:17;;;;;;;5.03;4.35;;;7.10;99.90;;;;;;5075661;28;20055;-66
2022/04/05 06:12:45;;;;;;;5.90;4.95;;;7.10;99.90;;;;;;5080908;28;20072;-66
2022/04/05 06:15:13;;;;;;;7.50;4.80;;;7.20;99.90;;;;;;5094877;28;20462;-63
2022/04/05 06:17:44;;;;;;;6.18;4.50;;;7.20;99.90;;;;;;5076782;28;20029;-64
2022/04/05 06:20:11;;;;;;;4.78;4.35;;;7.10;99.90;;;;;;5083906;28;20020;-63
2022/04/05 06:22:50;;;;;;;6.55;4.78;;;7.10;99.90;;;;;;5088992;28;20032;-64
2022/04/05 06:25:18;;;;;;;5.93;5.10;;;7.10;99.90;;;;;;5082950;28;20235;-64
2022/04/05 06:27:44;;;;;;;6.43;4.95;;;7.10;99.90;;;;;;5093985;28;20064;-62
2022/04/05 06:30:12;;;;;;;6.15;4.45;;;7.20;99.90;;;;;;5092015;28;20381;-69
2022/04/05 06:32:38;;;;;;;4.85;4.45;;;7.20;99.90;;;;;;5090580;28;20052;-63
2022/04/05 06:35:06;;;;;;;7.25;5.35;;;7.10;99.90;;;;;;5093402;28;20481;-64
2022/04/05 06:37:32;;;;;;;5.32;4.82;;;7.10;99.90;;;;;;5094323;28;20028;-66
2022/04/05 06:39:58;;;;;;;4.80;4.22;;;7.20;99.90;;;;;;5094340;28;20082;-71
2022/04/05 06:42:25;;;;;;;9.00;4.78;;;8.10;99.90;;;;;;5094186;28;20032;-67
2022/04/05 06:44:52;;;;;;;5.15;4.60;;;8.20;99.90;;;;;;5066234;28;20076;-69
2022/04/05 06:47:17;;;;;;;4.82;4.28;;;8.60;99.90;;;;;;5073732;28;20445;-68
2022/04/05 06:49:43;;;;;;;6.35;4.90;;;9.10;99.90;;;;;;5056664;28;20071;-63
2022/04/05 06:52:09;;;;;;;6.13;5.32;;;8.40;99.90;;;;;;5072764;28;20024;-65
2022/04/05 06:54:35;;;;;;;5.78;4.93;;;7.90;99.90;;;;;;5062004;28;20061;-64
2022/04/05 06:57:01;;;;;;;6.75;6.00;;;7.60;99.90;;;;;;5052711;28;20064;-64
2022/04/05 06:59:26;;;;;;;6.05;4.88;;;7.50;99.90;;;;;;5072250;28;20074;-65
2022/04/05 07:01:52;;;;;;;9.65;5.43;;;7.40;99.90;;;;;;5070535;28;20028;-63
2022/04/05 07:04:18;;;;;;;10.55;5.45;;;7.40;99.90;;;;;;5073476;28;20624;-64
2022/04/05 07:06:43;;;;;;;7.15;5.57;;;7.40;99.90;;;;;;5056063;28;20025;-63
2022/04/05 07:09:09;;;;;;;6.78;5.65;;;7.40;99.90;;;;;;5072479;28;20052;-64
2022/04/05 07:11:35;;;;;;;6.80;5.88;;;7.30;99.90;;;;;;5056168;28;20036;-64
2022/04/05 07:14:01;;;;;;;8.05;5.43;;;7.30;99.90;;;;;;5055426;28;20028;-62
2022/04/05 07:16:27;;;;;;;7.50;6.20;;;7.40;99.90;;;;;;5073868;28;20386;-62
2022/04/05 07:18:52;;;;;;;7.13;6.00;;;7.40;99.90;;;;;;5073076;28;20449;-63
2022/04/05 07:21:21;;;;;;;7.78;6.10;;;7.40;99.90;;;;;;5073289;28;20030;-64
2022/04/05 07:23:48;;;;;;;7.15;5.88;;;7.50;99.90;;;;;;5072031;28;20021;-66
2022/04/05 07:26:14;;;;;;;9.23;6.00;;;7.50;99.90;;;;;;5072543;28;20500;-63
2022/04/05 07:28:39;;;;;;;7.03;6.05;;;7.60;99.90;;;;;;5074021;28;20028;-64
2022/04/05 07:31:05;;;;;;;7.05;6.10;;;7.50;99.90;;;;;;5055706;28;20540;-65
2022/04/05 07:33:31;;;;;;;6.65;5.95;;;7.60;99.90;;;;;;5045984;28;20038;-65
2022/04/05 07:35:57;;;;;;;7.00;6.32;;;7.50;99.90;;;;;;5070654;28;20031;-65
2022/04/05 07:38:24;;;;;;;16.80;9.18;;;7.50;99.90;;;;;;5072279;28;20082;-68
2022/04/05 07:40:51;;;;;;;9.50;7.30;;;9.20;99.90;;;;;;5052699;28;20393;-67
2022/04/05 07:43:19;;;;;;;8.55;6.55;;;9.10;99.90;;;;;;5072579;28;20448;-64
2022/04/05 07:45:48;;;;;;;7.82;5.53;;;9.00;99.90;;;;;;5074080;28;20024;-65
2022/04/05 07:48:18;;;;;;;9.45;5.82;;;8.30;99.90;;;;;;5055647;28;20474;-66
2022/04/05 07:50:44;;;;;;;7.35;6.35;;;8.10;99.90;;;;;;5055613;28;20025;-66
2022/04/05 07:53:10;;;;;;;8.88;6.65;;;8.00;99.90;;;;;;5052236;28;20025;-65
2022/04/05 07:55:35;;;;;;;10.38;6.43;;;7.80;99.90;;;;;;5046770;28;20033;-65
2022/04/05 07:58:03;;;;;;;8.30;6.95;;;7.70;99.90;;;;;;5073613;28;20107;-69
2022/04/05 08:00:29;;;;;;;8.10;5.93;;;7.70;99.90;;;;;;5073527;28;20532;-65
2022/04/05 08:02:55;;;;;;;6.80;5.85;;;7.70;99.90;;;;;;5068121;28;20355;-64
2022/04/05 08:05:23;;;;;;;7.85;6.50;;;7.70;99.90;;;;;;5056782;28;20029;-68
2022/04/05 08:07:50;;;;;;;7.15;5.95;;;7.70;99.90;;;;;;5054253;28;20450;-66
2022/04/05 08:10:16;;;;;;;8.23;5.88;;;7.80;99.90;;;;;;5051460;28;20040;-69
2022/04/05 08:12:44;;;;;;;12.75;6.97;;;7.80;99.90;;;;;;5073838;28;20025;-64
2022/04/05 08:15:11;;;;;;;8.30;6.28;;;7.80;99.90;;;;;;5055078;28;20480;-65
2022/04/05 08:17:37;;;;;;;10.25;5.40;;;7.90;99.90;;;;;;5055790;28;20029;-65
2022/04/05 08:20:05;;;;;;;8.43;5.72;;;7.90;99.90;;;;;;5055007;28;20027;-71
2022/04/05 08:22:31;;;;;;;6.95;5.30;;;8.00;99.90;;;;;;5054789;28;20033;-65
2022/04/05 08:24:57;;;;;;;5.57;4.70;;;8.00;99.90;;;;;;5072808;28;20035;-65
2022/04/05 08:27:23;;;;;;;5.93;4.95;;;8.10;99.90;;;;;;5072087;28;20050;-63
2022/04/05 08:29:48;;;;;;;6.13;5.25;;;8.20;99.90;;;;;;5050256;28;20580;-66
2022/04/05 08:32:14;;;;;;;6.05;4.97;;;8.30;99.90;;;;;;5032790;28;20486;-65
2022/04/05 08:34:42;;;;;;;5.40;4.55;;;8.40;99.90;;;;;;5050388;28;20033;-63
2022/04/05 08:37:10;;;;;;;6.90;4.07;;;8.30;99.90;;;;;;5049879;28;20036;-65
2022/04/05 08:39:36;;;;;;;5.63;4.28;;;8.30;99.90;;;;;;5021743;28;20061;-65
2022/04/05 08:42:04;;;;;;;6.97;4.32;;;8.30;99.90;;;;;;5054607;28;20517;-65
2022/04/05 08:44:30;;;;;;;3.88;3.47;;;8.30;99.90;;;;;;5054426;28;20049;-67
2022/04/05 08:47:00;;;;;;;6.75;4.72;;;8.30;99.90;;;;;;5037474;28;20148;-65
2022/04/05 08:49:28;;;;;;;4.65;3.65;;;8.50;99.90;;;;;;5037347;28;20530;-64
2022/04/05 08:51:54;;;;;;;9.30;3.47;;;8.50;99.90;;;;;;5037870;28;20033;-64
2022/04/05 08:54:19;;;;;;;4.47;3.03;;;8.60;99.90;;;;;;5053829;28;20083;-65
2022/04/05 08:56:47;;;;;;;3.92;3.38;;;8.60;99.90;;;;;;5054188;28;20459;-64
2022/04/05 08:59:13;;;;;;;4.07;3.38;;;8.80;99.90;;;;;;5053731;28;20025;-65
2022/04/05 09:01:40;;;;;;;3.60;3.10;;;8.70;99.90;;;;;;5073098;28;20158;-63
2022/04/05 09:04:06;;;;;;;4.68;3.08;;;8.60;99.90;;;;;;5058353;28;20032;-71
2022/04/05 09:06:36;;;;;;;7.15;3.03;;;8.80;99.90;;;;;;5076479;28;20035;-63
2022/04/05 09:09:18;;;;;;;3.35;2.80;;;8.80;99.90;;;;;;5076871;28;20025;-64
2022/04/05 09:11:49;;;;;;;4.97;2.85;;;8.90;99.90;;;;;;5076343;28;20047;-66
2022/04/05 09:14:26;;;;;;;2.88;2.45;;;9.00;99.90;;;;;;5058185;28;20119;-69
2022/04/05 09:17:06;;;;;;;5.30;3.00;;;9.00;99.90;;;;;;5076663;28;20482;-65
2022/04/05 09:19:45;;;;;;;3.40;2.83;;;9.10;99.90;;;;;;5077680;28;20029;-68
2022/04/05 09:22:12;;;;;;;2.72;2.38;;;9.10;99.90;;;;;;5058411;28;20025;-66
2022/04/05 09:24:40;;;;;;;3.40;3.10;;;9.00;99.90;;;;;;5076149;28;20093;-67
2022/04/05 09:27:07;;;;;;;2.88;2.28;;;8.90;99.90;;;;;;5058366;28;20032;-65
2022/04/05 09:29:47;;;;;;;3.75;2.88;;;8.90;99.90;;;;;;5076468;28;20078;-66
2022/04/05 09:32:33;;;;;;;3.35;2.72;;;8.90;99.90;;;;;;5075278;28;20090;-65
2022/04/05 09:35:02;;;;;;;3.00;2.70;;;9.10;99.90;;;;;;5076027;28;20055;-65
2022/04/05 09:37:28;;;;;;;4.18;2.20;;;9.10;99.90;;;;;;5057290;28;20181;-64
2022/04/05 09:40:13;;;;;;;3.20;2.85;;;9.20;99.90;;;;;;5076027;28;20060;-68
2022/04/05 09:43:10;;;;;;;2.60;2.30;;;9.30;99.90;;;;;;5075647;28;20021;-66
2022/04/05 09:46:00;;;;;;;3.95;2.33;;;9.50;99.90;;;;;;5076069;28;20044;-67
2022/04/05 09:48:31;;;;;;;4.35;2.72;;;9.60;99.90;;;;;;5074565;28;20414;-65
2022/04/05 09:51:02;;;;;;;4.77;2.83;;;9.90;99.90;;;;;;5075826;28;20033;-63
2022/04/05 09:53:40;;;;;;;2.45;2.15;;;10.20;99.90;;;;;;5074899;28;20059;-65
2022/04/05 09:56:22;;;;;;;2.65;1.95;;;10.40;99.90;;;;;;5075200;28;20048;-64
2022/04/05 09:58:52;;;;;;;3.22;2.13;;;10.50;99.90;;;;;;5075710;28;20021;-66
2022/04/05 10:01:20;;;;;;;2.38;2.17;;;10.80;99.90;;;;;;5057938;28;20032;-66
2022/04/05 10:04:04;;;;;;;2.42;2.22;;;10.70;99.90;;;;;;5076889;28;20024;-66
2022/04/05 10:06:30;;;;;;;1.90;1.55;;;10.80;99.90;;;;;;5076577;28;20409;-68
2022/04/05 10:08:57;;;;;;;2.45;1.85;;;11.20;99.90;;;;;;5058944;28;20032;-65
2022/04/05 10:11:25;;;;;;;2.40;2.03;;;11.30;99.90;;;;;;5075191;28;20044;-65
2022/04/05 10:13:51;;;;;;;2.58;2.13;;;11.40;99.90;;;;;;5075290;28;20028;-66
2022/04/05 10:16:21;;;;;;;2.28;1.98;;;11.40;99.90;;;;;;5056962;28;20024;-65
2022/04/05 10:18:50;;;;;;;2.08;1.67;;;11.30;99.90;;;;;;5057393;28;20458;-68
2022/04/05 10:21:16;;;;;;;2.72;1.98;;;11.20;99.90;;;;;;5074657;28;20194;-64
2022/04/05 10:23:43;;;;;;;5.00;1.90;;;11.20;99.90;;;;;;5074866;28;20028;-65
2022/04/05 10:26:20;;;;;;;3.13;2.35;;;11.30;99.90;;;;;;5074399;28;20032;-64
2022/04/05 10:28:48;;;;;;;2.78;1.63;;;11.40;99.90;;;;;;5074632;28;20473;-65
2022/04/05 10:31:32;;;;;;;2.45;2.03;;;11.50;99.90;;;;;;5055929;28;20021;-66
2022/04/05 10:34:17;;;;;;;5.32;1.98;;;11.30;99.90;;;;;;5056546;28;20020;-64
2022/04/05 10:37:18;;;;;;;2.28;1.60;;;11.20;99.90;;;;;;5074913;28;20036;-65
2022/04/05 10:40:09;;;;;;;2.78;1.67;;;11.70;99.90;;;;;;5043316;28;20413;-66
2022/04/05 10:42:43;;;;;;;3.10;1.80;;;12.30;99.90;;;;;;5074117;28;20082;-64
2022/04/05 10:45:28;;;;;;;1.90;1.70;;;13.10;99.90;;;;;;5056785;28;20067;-63
2022/04/05 10:48:08;;;;;;;3.97;1.70;;;13.30;99.90;;;;;;5056232;28;20040;-65
2022/04/05 10:50:40;;;;;;;7.00;1.80;;;13.50;99.90;;;;;;5073762;28;20039;-70
2022/04/05 10:53:29;;;;;;;2.38;2.00;;;13.80;99.90;;;;;;5074054;28;20021;-65
2022/04/05 10:56:03;;;;;;;1.92;1.30;;;13.60;99.90;;;;;;5048364;28;20036;-69
2022/04/05 10:59:01;;;;;;;2.28;1.80;;;13.70;99.90;;;;;;5065507;28;20091;-68
2022/04/05 11:01:45;;;;;;;2.38;1.85;;;13.30;99.90;;;;;;5073932;28;20043;-70
2022/04/05 11:04:18;;;;;;;3.17;1.70;;;13.50;99.90;;;;;;5074437;28;20020;-73
2022/04/05 11:07:02;;;;;;;3.55;1.60;;;13.20;99.90;;;;;;5075580;28;20037;-69
2022/04/05 11:09:47;;;;;;;1.70;1.60;;;13.30;99.90;;;;;;5057636;28;20074;-68
2022/04/05 11:12:21;;;;;;;3.13;1.30;;;13.40;99.90;;;;;;5056962;28;20035;-73
2022/04/05 11:14:50;;;;;;;3.97;1.80;;;13.20;99.90;;;;;;5067845;28;20036;-70
2022/04/05 11:17:19;;;;;;;5.93;1.58;;;13.20;99.90;;;;;;5075696;28;20083;-70
2022/04/05 11:19:47;;;;;;;2.08;1.83;;;13.10;99.90;;;;;;5055837;28;20052;-73
2022/04/05 11:22:21;;;;;;;1.92;1.48;;;12.50;99.90;;;;;;5054358;28;20029;-68
2022/04/05 11:25:13;;;;;;;4.10;1.92;;;12.50;99.90;;;;;;5054296;28;20115;-70
2022/04/05 11:27:47;;;;;;;4.18;2.15;;;12.70;99.90;;;;;;5047797;28;20078;-69
2022/04/05 11:30:28;;;;;;;3.13;1.40;;;12.60;99.90;;;;;;5066317;28;20040;-69
2022/04/05 11:33:09;;;;;;;5.57;1.60;;;12.50;99.90;;;;;;5028827;28;20491;-68
2022/04/05 11:35:40;;;;;;;4.22;1.75;;;12.60;99.90;;;;;;5031976;28;20547;-69
2022/04/05 11:38:27;;;;;;;4.35;1.67;;;12.50;99.90;;;;;;5033390;28;20075;-68
2022/04/05 11:41:20;;;;;;;3.15;1.95;;;12.40;99.90;;;;;;5032602;28;20030;-69
2022/04/05 11:43:50;;;;;;;3.20;1.88;;;12.40;99.90;;;;;;5015529;28;20061;-69
2022/04/05 11:46:36;;;;;;;3.67;1.77;;;12.30;99.90;;;;;;5031196;28;20064;-75
2022/04/05 11:49:08;;;;;;;2.55;1.80;;;12.30;99.90;;;;;;5031793;28;20502;-69
2022/04/05 11:51:37;;;;;;;1.85;1.58;;;12.10;99.90;;;;;;5031654;28;20482;-72
2022/04/05 11:54:09;;;;;;;3.00;1.88;;;12.00;99.90;;;;;;5032141;28;20068;-68
2022/04/05 11:56:36;;;;;;;3.17;1.70;;;12.00;99.90;;;;;;5030781;28;20127;-69
2022/04/05 11:59:05;;;;;;;2.55;2.33;;;11.80;99.90;;;;;;5031600;28;20407;-66
2022/04/05 12:01:36;;;;;;;8.15;2.42;;;11.70;99.90;;;;;;5014238;28;20030;-69
2022/04/05 12:04:06;;;;;;;2.50;2.05;;;11.70;99.90;;;;;;5002533;28;20037;-69
2022/04/05 12:06:34;;;;;;;4.70;2.47;;;11.70;99.90;;;;;;4993561;28;20049;-69
2022/04/05 12:09:20;;;;;;;3.85;2.15;;;11.80;99.90;;;;;;5008119;28;20085;-67
2022/04/05 12:11:48;;;;;;;6.32;2.28;;;11.80;99.90;;;;;;5011405;28;20038;-69
2022/04/05 12:14:15;;;;;;;4.25;2.40;;;11.70;99.90;;;;;;4994503;28;20049;-69
2022/04/05 12:16:48;;;;;;;2.28;1.95;;;11.60;99.90;;;;;;5011619;28;20495;-68
2022/04/05 12:19:18;;;;;;;3.00;2.58;;;11.70;99.90;;;;;;5012322;28;20053;-71
2022/04/05 12:21:44;;;;;;;3.40;1.83;;;11.70;99.90;;;;;;4995892;28;20030;-70
2022/04/05 12:24:09;;;;;;;4.05;3.38;;;11.70;99.90;;;;;;5011548;28;20057;-67
2022/04/05 12:26:35;;;;;;;3.90;2.28;;;11.80;99.90;;;;;;5011518;28;20045;-68
2022/04/05 12:29:01;;;;;;;4.57;2.83;;;11.90;99.90;;;;;;5012320;28;20483;-68
2022/04/05 12:31:29;;;;;;;3.33;2.13;;;11.90;99.90;;;;;;5010982;28;20038;-67
2022/04/05 12:33:59;;;;;;;2.63;2.28;;;12.00;99.90;;;;;;5012171;28;20042;-70
2022/04/05 12:36:39;;;;;;;2.58;2.38;;;12.00;99.90;;;;;;4998303;28;20046;-68
2022/04/05 12:39:20;;;;;;;2.85;2.15;;;12.00;99.90;;;;;;5014612;28;20030;-72
2022/04/05 12:41:51;;;;;;;2.10;1.90;;;11.90;99.90;;;;;;5039586;28;20497;-69
2022/04/05 12:44:21;;;;;;;3.22;2.50;;;12.00;99.90;;;;;;5061434;28;20055;-69
2022/04/05 12:46:56;;;;;;;3.33;2.58;;;12.00;99.90;;;;;;5060535;28;20032;-68
2022/04/05 12:49:32;;;;;;;2.30;2.13;;;12.10;99.90;;;;;;5077109;28;20025;-69
2022/04/05 12:52:15;;;;;;;3.78;2.60;;;12.20;99.90;;;;;;5076437;28;20020;-74
2022/04/05 12:55:01;;;;;;;3.70;2.28;;;12.20;99.90;;;;;;5074664;28;20438;-68
2022/04/05 12:57:31;;;;;;;2.80;2.60;;;12.30;99.90;;;;;;5074228;28;20043;-69
2022/04/05 13:00:16;;;;;;;3.10;2.80;;;12.20;99.90;;;;;;5075124;28;20028;-69
2022/04/05 13:02:50;;;;;;;5.20;3.15;;;12.20;99.90;;;;;;5072730;28;20024;-68
2022/04/05 13:08:34;;;;;;;4.03;3.25;;;12.20;99.90;;;;;;5073118;28;20058;-69